sensor_id;sensor_type;location;lat;lon;timestamp;temperature;humidity
18225;DHT22;9237;48.590;8.854;2023-11-18T00:01:23;2.50;99.90
18225;DHT22;9237;48.590;8.854;2023-11-18T00:03:52;2.50;99.90
18225;DHT22;9237;48.590;8.854;2023-11-18T00:06:18;2.40;99.90
18225;DHT22;9237;48.590;8.854;2023-11-18T00:08:45;2.40;99.90
18225;DHT22;9237;48.590;8.854;2023-11-18T00:11:12;2.30;99.90
18225;DHT22;9237;48.590;8.854;2023-11-18T00:13:39;2.40;99.90
18225;DHT22;9237;48.590;8.854;2023-11-18T00:16:08;2.50;99.90
18225;DHT22;9237;48.590;8.854;2023-11-18T00:18:38;2.60;99.90
18225;DHT22;9237;48.590;8.854;2023-11-18T00:21:06;2.70;99.90
18225;DHT22;9237;48.590;8.854;2023-11-18T00:23:33;2.70;99.90
18225;DHT22;9237;48.590;8.854;2023-11-18T00:26:00;2.70;99.90
18225;DHT22;9237;48.590;8.854;2023-11-18T00:28:27;2.70;99.90
18225;DHT22;9237;48.590;8.854;2023-11-18T00:30:54;2.70;99.90
18225;DHT22;9237;48.590;8.854;2023-11-18T00:33:21;2.70;99.90
18225;DHT22;9237;48.590;8.854;2023-11-18T00:35:48;2.70;99.90
18225;DHT22;9237;48.590;8.854;2023-11-18T00:38:16;2.70;99.90
18225;DHT22;9237;48.590;8.854;2023-11-18T00:40:43;2.70;99.90
18225;DHT22;9237;48.590;8.854;2023-11-18T00:43:10;2.70;99.90
18225;DHT22;9237;48.590;8.854;2023-11-18T00:45:36;2.80;99.90
18225;DHT22;9237;48.590;8.854;2023-11-18T00:48:03;2.80;99.90
18225;DHT22;9237;48.590;8.854;2023-11-18T00:50:30;2.80;99.90
18225;DHT22;9237;48.590;8.854;2023-11-18T00:52:58;2.80;99.90
18225;DHT22;9237;48.590;8.854;2023-11-18T00:55:26;2.90;99.90
18225;DHT22;9237;48.590;8.854;2023-11-18T00:57:53;3.00;99.90
18225;DHT22;9237;48.590;8.854;2023-11-18T01:00:20;2.90;99.90
18225;DHT22;9237;48.590;8.854;2023-11-18T01:02:48;2.90;99.90
18225;DHT22;9237;48.590;8.854;2023-11-18T01:05:15;2.90;99.90
18225;DHT22;9237;48.590;8.854;2023-11-18T01:07:42;3.00;99.90
18225;DHT22;9237;48.590;8.854;2023-11-18T01:10:10;3.00;99.90
18225;DHT22;9237;48.590;8.854;2023-11-18T01:12:38;3.00;99.90
18225;DHT22;9237;48.590;8.854;2023-11-18T01:15:06;3.00;99.90
18225;DHT22;9237;48.590;8.854;2023-11-18T01:17:33;3.00;99.90
18225;DHT22;9237;48.590;8.854;2023-11-18T01:20:00;3.10;99.90
18225;DHT22;9237;48.590;8.854;2023-11-18T01:22:33;3.10;99.90
18225;DHT22;9237;48.590;8.854;2023-11-18T01:25:00;3.10;99.90
18225;DHT22;9237;48.590;8.854;2023-11-18T01:27:27;3.10;99.90
18225;DHT22;9237;48.590;8.854;2023-11-18T01:29:55;3.10;99.90
18225;DHT22;9237;48.590;8.854;2023-11-18T01:32:22;3.10;99.90
18225;DHT22;9237;48.590;8.854;2023-11-18T01:34:49;3.10;99.90
18225;DHT22;9237;48.590;8.854;2023-11-18T01:37:16;3.00;99.90
18225;DHT22;9237;48.590;8.854;2023-11-18T01:39:43;3.00;99.90
18225;DHT22;9237;48.590;8.854;2023-11-18T01:42:10;3.10;99.90
18225;DHT22;9237;48.590;8.854;2023-11-18T01:44:37;3.10;99.90
18225;DHT22;9237;48.590;8.854;2023-11-18T01:47:07;3.10;99.90
18225;DHT22;9237;48.590;8.854;2023-11-18T01:49:38;3.10;99.90
18225;DHT22;9237;48.590;8.854;2023-11-18T01:52:05;3.00;99.90
18225;DHT22;9237;48.590;8.854;2023-11-18T01:54:33;2.90;99.90
18225;DHT22;9237;48.590;8.854;2023-11-18T01:57:00;2.90;99.90
18225;DHT22;9237;48.590;8.854;2023-11-18T01:59:31;2.80;99.90
18225;DHT22;9237;48.590;8.854;2023-11-18T02:01:59;2.80;99.90
18225;DHT22;9237;48.590;8.854;2023-11-18T02:04:28;2.80;99.90
18225;DHT22;9237;48.590;8.854;2023-11-18T02:06:56;2.70;99.90
18225;DHT22;9237;48.590;8.854;2023-11-18T02:09:23;2.60;99.90
18225;DHT22;9237;48.590;8.854;2023-11-18T02:11:58;2.50;99.90
18225;DHT22;9237;48.590;8.854;2023-11-18T02:14:27;2.50;99.90
18225;DHT22;9237;48.590;8.854;2023-11-18T02:16:57;2.30;99.90
18225;DHT22;9237;48.590;8.854;2023-11-18T02:19:28;2.30;99.90
18225;DHT22;9237;48.590;8.854;2023-11-18T02:21:55;2.30;99.90
18225;DHT22;9237;48.590;8.854;2023-11-18T02:24:27;2.40;99.90
18225;DHT22;9237;48.590;8.854;2023-11-18T02:26:58;2.40;99.90
18225;DHT22;9237;48.590;8.854;2023-11-18T02:29:26;2.10;99.90
18225;DHT22;9237;48.590;8.854;2023-11-18T02:31:59;2.00;99.90
18225;DHT22;9237;48.590;8.854;2023-11-18T02:34:32;2.00;99.90
18225;DHT22;9237;48.590;8.854;2023-11-18T02:37:02;1.90;99.90
18225;DHT22;9237;48.590;8.854;2023-11-18T02:39:39;1.90;99.90
18225;DHT22;9237;48.590;8.854;2023-11-18T02:42:10;1.70;99.90
18225;DHT22;9237;48.590;8.854;2023-11-18T02:44:38;1.70;99.90
18225;DHT22;9237;48.590;8.854;2023-11-18T02:47:06;1.70;99.90
18225;DHT22;9237;48.590;8.854;2023-11-18T02:49:34;1.60;99.90
18225;DHT22;9237;48.590;8.854;2023-11-18T02:52:01;1.60;99.90
18225;DHT22;9237;48.590;8.854;2023-11-18T02:54:30;1.50;99.90
18225;DHT22;9237;48.590;8.854;2023-11-18T02:56:57;1.50;99.90
18225;DHT22;9237;48.590;8.854;2023-11-18T02:59:25;1.50;99.90
18225;DHT22;9237;48.590;8.854;2023-11-18T03:01:55;1.40;99.90
18225;DHT22;9237;48.590;8.854;2023-11-18T03:04:22;1.40;99.90
18225;DHT22;9237;48.590;8.854;2023-11-18T03:06:50;1.30;99.90
18225;DHT22;9237;48.590;8.854;2023-11-18T03:09:17;1.40;99.90
18225;DHT22;9237;48.590;8.854;2023-11-18T03:11:44;1.40;99.90
18225;DHT22;9237;48.590;8.854;2023-11-18T03:14:11;1.40;99.90
18225;DHT22;9237;48.590;8.854;2023-11-18T03:16:39;1.30;99.90
18225;DHT22;9237;48.590;8.854;2023-11-18T03:19:06;1.20;99.90
18225;DHT22;9237;48.590;8.854;2023-11-18T03:21:34;1.10;99.90
18225;DHT22;9237;48.590;8.854;2023-11-18T03:24:01;1.10;99.90
18225;DHT22;9237;48.590;8.854;2023-11-18T03:26:27;1.00;99.90
18225;DHT22;9237;48.590;8.854;2023-11-18T03:28:54;1.00;99.90
18225;DHT22;9237;48.590;8.854;2023-11-18T03:31:21;1.00;99.90
18225;DHT22;9237;48.590;8.854;2023-11-18T03:33:49;1.10;99.90
18225;DHT22;9237;48.590;8.854;2023-11-18T03:36:16;1.10;99.90
18225;DHT22;9237;48.590;8.854;2023-11-18T03:38:43;1.10;99.90
18225;DHT22;9237;48.590;8.854;2023-11-18T03:41:10;1.20;99.90
18225;DHT22;9237;48.590;8.854;2023-11-18T03:43:38;1.30;99.90
18225;DHT22;9237;48.590;8.854;2023-11-18T03:46:05;1.30;99.90
18225;DHT22;9237;48.590;8.854;2023-11-18T03:48:33;1.30;99.90
18225;DHT22;9237;48.590;8.854;2023-11-18T03:51:01;1.30;99.90
18225;DHT22;9237;48.590;8.854;2023-11-18T03:53:29;1.60;99.90
18225;DHT22;9237;48.590;8.854;2023-11-18T03:55:56;1.70;99.90
18225;DHT22;9237;48.590;8.854;2023-11-18T03:58:22;1.70;99.90
18225;DHT22;9237;48.590;8.854;2023-11-18T04:00:49;1.80;99.90
18225;DHT22;9237;48.590;8.854;2023-11-18T04:03:16;1.80;99.90
18225;DHT22;9237;48.590;8.854;2023-11-18T04:05:43;1.70;99.90
18225;DHT22;9237;48.590;8.854;2023-11-18T04:08:11;1.70;99.90
18225;DHT22;9237;48.590;8.854;2023-11-18T04:10:38;1.80;99.90
18225;DHT22;9237;48.590;8.854;2023-11-18T04:13:05;1.80;99.90
18225;DHT22;9237;48.590;8.854;2023-11-18T04:15:32;1.80;99.90
18225;DHT22;9237;48.590;8.854;2023-11-18T04:18:00;1.80;99.90
18225;DHT22;9237;48.590;8.854;2023-11-18T04:20:27;1.80;99.90
18225;DHT22;9237;48.590;8.854;2023-11-18T04:22:54;1.80;99.90
18225;DHT22;9237;48.590;8.854;2023-11-18T04:25:22;1.80;99.90
18225;DHT22;9237;48.590;8.854;2023-11-18T04:27:50;1.90;99.90
18225;DHT22;9237;48.590;8.854;2023-11-18T04:30:17;1.90;99.90
18225;DHT22;9237;48.590;8.854;2023-11-18T04:32:44;2.00;99.90
18225;DHT22;9237;48.590;8.854;2023-11-18T04:35:11;2.00;99.90
18225;DHT22;9237;48.590;8.854;2023-11-18T04:37:38;2.00;99.90
18225;DHT22;9237;48.590;8.854;2023-11-18T04:40:09;2.10;99.90
18225;DHT22;9237;48.590;8.854;2023-11-18T04:42:38;2.10;99.90
18225;DHT22;9237;48.590;8.854;2023-11-18T04:45:05;2.20;99.90
18225;DHT22;9237;48.590;8.854;2023-11-18T04:47:35;2.20;99.90
18225;DHT22;9237;48.590;8.854;2023-11-18T04:50:01;2.10;99.90
18225;DHT22;9237;48.590;8.854;2023-11-18T04:52:29;2.10;99.90
18225;DHT22;9237;48.590;8.854;2023-11-18T04:54:58;2.10;99.90
18225;DHT22;9237;48.590;8.854;2023-11-18T04:57:25;2.00;99.90
18225;DHT22;9237;48.590;8.854;2023-11-18T04:59:53;2.00;99.90
18225;DHT22;9237;48.590;8.854;2023-11-18T05:02:20;2.00;99.90
18225;DHT22;9237;48.590;8.854;2023-11-18T05:04:47;2.00;99.90
18225;DHT22;9237;48.590;8.854;2023-11-18T05:07:14;2.00;99.90
18225;DHT22;9237;48.590;8.854;2023-11-18T05:09:41;2.00;99.90
18225;DHT22;9237;48.590;8.854;2023-11-18T05:12:08;1.90;99.90
18225;DHT22;9237;48.590;8.854;2023-11-18T05:14:35;1.90;99.90
18225;DHT22;9237;48.590;8.854;2023-11-18T05:17:03;1.90;99.90
18225;DHT22;9237;48.590;8.854;2023-11-18T05:19:30;1.80;99.90
18225;DHT22;9237;48.590;8.854;2023-11-18T05:21:57;1.80;99.90
18225;DHT22;9237;48.590;8.854;2023-11-18T05:24:24;1.80;99.90
18225;DHT22;9237;48.590;8.854;2023-11-18T05:26:51;1.80;99.90
18225;DHT22;9237;48.590;8.854;2023-11-18T05:29:18;1.80;99.90
18225;DHT22;9237;48.590;8.854;2023-11-18T05:31:46;1.70;99.90
18225;DHT22;9237;48.590;8.854;2023-11-18T05:34:14;1.70;99.90
18225;DHT22;9237;48.590;8.854;2023-11-18T05:36:41;1.70;99.90
18225;DHT22;9237;48.590;8.854;2023-11-18T05:39:07;1.60;99.90
18225;DHT22;9237;48.590;8.854;2023-11-18T05:41:36;1.60;99.90
18225;DHT22;9237;48.590;8.854;2023-11-18T05:44:05;1.70;99.90
18225;DHT22;9237;48.590;8.854;2023-11-18T05:46:34;1.70;99.90
18225;DHT22;9237;48.590;8.854;2023-11-18T05:49:02;1.70;99.90
18225;DHT22;9237;48.590;8.854;2023-11-18T05:51:34;1.60;99.90
18225;DHT22;9237;48.590;8.854;2023-11-18T05:54:00;1.60;99.90
18225;DHT22;9237;48.590;8.854;2023-11-18T05:56:27;1.60;99.90
18225;DHT22;9237;48.590;8.854;2023-11-18T05:58:54;1.60;99.90
18225;DHT22;9237;48.590;8.854;2023-11-18T06:01:21;1.60;99.90
18225;DHT22;9237;48.590;8.854;2023-11-18T06:03:48;1.60;99.90
18225;DHT22;9237;48.590;8.854;2023-11-18T06:06:16;1.50;99.90
18225;DHT22;9237;48.590;8.854;2023-11-18T06:08:44;1.50;99.90
18225;DHT22;9237;48.590;8.854;2023-11-18T06:11:13;1.50;99.90
18225;DHT22;9237;48.590;8.854;2023-11-18T06:13:41;1.50;99.90
18225;DHT22;9237;48.590;8.854;2023-11-18T06:16:15;1.50;99.90
18225;DHT22;9237;48.590;8.854;2023-11-18T06:18:46;1.50;99.90
18225;DHT22;9237;48.590;8.854;2023-11-18T06:21:14;1.50;99.90
18225;DHT22;9237;48.590;8.854;2023-11-18T06:23:41;1.50;99.90
18225;DHT22;9237;48.590;8.854;2023-11-18T06:26:09;1.50;99.90
18225;DHT22;9237;48.590;8.854;2023-11-18T06:28:38;1.50;99.90
18225;DHT22;9237;48.590;8.854;2023-11-18T06:31:05;1.60;99.90
18225;DHT22;9237;48.590;8.854;2023-11-18T06:33:36;1.50;99.90
18225;DHT22;9237;48.590;8.854;2023-11-18T06:36:05;1.50;99.90
18225;DHT22;9237;48.590;8.854;2023-11-18T06:38:53;1.40;99.90
18225;DHT22;9237;48.590;8.854;2023-11-18T06:41:23;1.40;99.90
18225;DHT22;9237;48.590;8.854;2023-11-18T06:43:51;1.50;99.90
18225;DHT22;9237;48.590;8.854;2023-11-18T06:46:23;1.50;99.90
18225;DHT22;9237;48.590;8.854;2023-11-18T06:48:51;1.60;99.90
18225;DHT22;9237;48.590;8.854;2023-11-18T06:51:19;1.60;99.90
18225;DHT22;9237;48.590;8.854;2023-11-18T06:53:49;1.70;99.90
18225;DHT22;9237;48.590;8.854;2023-11-18T06:56:15;1.70;99.90
18225;DHT22;9237;48.590;8.854;2023-11-18T06:58:44;1.80;99.90
18225;DHT22;9237;48.590;8.854;2023-11-18T07:01:12;1.90;99.90
18225;DHT22;9237;48.590;8.854;2023-11-18T07:03:40;2.00;99.90
18225;DHT22;9237;48.590;8.854;2023-11-18T07:06:08;2.10;99.90
18225;DHT22;9237;48.590;8.854;2023-11-18T07:08:35;2.20;99.90
18225;DHT22;9237;48.590;8.854;2023-11-18T07:11:02;2.20;99.90
18225;DHT22;9237;48.590;8.854;2023-11-18T07:13:29;2.30;99.90
18225;DHT22;9237;48.590;8.854;2023-11-18T07:15:57;2.40;99.90
18225;DHT22;9237;48.590;8.854;2023-11-18T07:18:24;2.50;99.90
18225;DHT22;9237;48.590;8.854;2023-11-18T07:20:51;2.50;99.90
18225;DHT22;9237;48.590;8.854;2023-11-18T07:23:18;2.60;99.90
18225;DHT22;9237;48.590;8.854;2023-11-18T07:25:51;2.60;99.90
18225;DHT22;9237;48.590;8.854;2023-11-18T07:28:19;2.60;99.90
18225;DHT22;9237;48.590;8.854;2023-11-18T07:30:47;2.60;99.90
18225;DHT22;9237;48.590;8.854;2023-11-18T07:33:15;2.60;99.90
18225;DHT22;9237;48.590;8.854;2023-11-18T07:35:42;2.60;99.90
18225;DHT22;9237;48.590;8.854;2023-11-18T07:38:09;2.50;99.90
18225;DHT22;9237;48.590;8.854;2023-11-18T07:40:36;2.50;99.90
18225;DHT22;9237;48.590;8.854;2023-11-18T07:43:08;2.60;99.90
18225;DHT22;9237;48.590;8.854;2023-11-18T07:45:35;2.60;99.90
18225;DHT22;9237;48.590;8.854;2023-11-18T07:48:03;2.60;99.90
18225;DHT22;9237;48.590;8.854;2023-11-18T07:50:33;2.70;99.90
18225;DHT22;9237;48.590;8.854;2023-11-18T07:53:00;2.60;99.90
18225;DHT22;9237;48.590;8.854;2023-11-18T07:55:27;2.60;99.90
18225;DHT22;9237;48.590;8.854;2023-11-18T07:57:54;2.70;99.90
18225;DHT22;9237;48.590;8.854;2023-11-18T08:00:21;2.80;99.90
18225;DHT22;9237;48.590;8.854;2023-11-18T08:02:49;2.90;99.90
18225;DHT22;9237;48.590;8.854;2023-11-18T08:05:17;2.90;99.90
18225;DHT22;9237;48.590;8.854;2023-11-18T08:07:46;3.00;99.90
18225;DHT22;9237;48.590;8.854;2023-11-18T08:10:12;3.00;99.90
18225;DHT22;9237;48.590;8.854;2023-11-18T08:12:44;3.10;99.90
18225;DHT22;9237;48.590;8.854;2023-11-18T08:15:12;3.10;99.90
18225;DHT22;9237;48.590;8.854;2023-11-18T08:17:39;3.20;99.90
18225;DHT22;9237;48.590;8.854;2023-11-18T08:20:06;3.20;99.90
18225;DHT22;9237;48.590;8.854;2023-11-18T08:22:39;3.30;99.90
18225;DHT22;9237;48.590;8.854;2023-11-18T08:25:08;3.40;99.90
18225;DHT22;9237;48.590;8.854;2023-11-18T08:27:35;3.40;99.90
18225;DHT22;9237;48.590;8.854;2023-11-18T08:30:02;3.50;99.90
18225;DHT22;9237;48.590;8.854;2023-11-18T08:32:31;3.60;99.90
18225;DHT22;9237;48.590;8.854;2023-11-18T08:34:58;3.60;99.90
18225;DHT22;9237;48.590;8.854;2023-11-18T08:37:25;3.60;99.90
18225;DHT22;9237;48.590;8.854;2023-11-18T08:39:53;3.70;99.90
18225;DHT22;9237;48.590;8.854;2023-11-18T08:42:21;3.70;99.90
18225;DHT22;9237;48.590;8.854;2023-11-18T08:44:48;3.80;99.90
18225;DHT22;9237;48.590;8.854;2023-11-18T08:47:14;3.80;99.90
18225;DHT22;9237;48.590;8.854;2023-11-18T08:49:43;3.90;99.90
18225;DHT22;9237;48.590;8.854;2023-11-18T08:52:12;3.90;99.90
18225;DHT22;9237;48.590;8.854;2023-11-18T08:54:39;4.00;99.90
18225;DHT22;9237;48.590;8.854;2023-11-18T08:57:27;4.10;99.90
18225;DHT22;9237;48.590;8.854;2023-11-18T09:00:14;4.20;99.90
18225;DHT22;9237;48.590;8.854;2023-11-18T09:03:02;4.30;99.90
18225;DHT22;9237;48.590;8.854;2023-11-18T09:05:31;4.30;99.90
18225;DHT22;9237;48.590;8.854;2023-11-18T09:07:58;4.40;99.90
18225;DHT22;9237;48.590;8.854;2023-11-18T09:10:26;4.60;99.90
18225;DHT22;9237;48.590;8.854;2023-11-18T09:12:55;4.70;99.90
18225;DHT22;9237;48.590;8.854;2023-11-18T09:15:21;4.70;99.90
18225;DHT22;9237;48.590;8.854;2023-11-18T09:17:48;4.80;99.90
18225;DHT22;9237;48.590;8.854;2023-11-18T09:20:15;4.90;99.90
18225;DHT22;9237;48.590;8.854;2023-11-18T09:22:46;4.90;99.90
18225;DHT22;9237;48.590;8.854;2023-11-18T09:25:13;5.00;99.90
18225;DHT22;9237;48.590;8.854;2023-11-18T09:27:41;5.10;99.90
18225;DHT22;9237;48.590;8.854;2023-11-18T09:30:09;5.10;99.90
18225;DHT22;9237;48.590;8.854;2023-11-18T09:32:39;5.20;99.90
18225;DHT22;9237;48.590;8.854;2023-11-18T09:35:07;5.30;99.90
18225;DHT22;9237;48.590;8.854;2023-11-18T09:37:35;5.40;99.90
18225;DHT22;9237;48.590;8.854;2023-11-18T09:40:02;5.40;99.90
18225;DHT22;9237;48.590;8.854;2023-11-18T09:42:36;5.60;99.90
18225;DHT22;9237;48.590;8.854;2023-11-18T09:45:05;5.60;99.90
18225;DHT22;9237;48.590;8.854;2023-11-18T09:47:43;5.60;99.90
18225;DHT22;9237;48.590;8.854;2023-11-18T09:50:17;5.70;99.90
18225;DHT22;9237;48.590;8.854;2023-11-18T09:52:48;5.80;99.90
18225;DHT22;9237;48.590;8.854;2023-11-18T09:55:25;5.90;99.90
18225;DHT22;9237;48.590;8.854;2023-11-18T09:57:56;6.10;99.90
18225;DHT22;9237;48.590;8.854;2023-11-18T10:00:26;6.20;99.90
18225;DHT22;9237;48.590;8.854;2023-11-18T10:02:59;6.30;99.90
18225;DHT22;9237;48.590;8.854;2023-11-18T10:05:27;6.40;99.90
18225;DHT22;9237;48.590;8.854;2023-11-18T10:07:55;6.50;99.90
18225;DHT22;9237;48.590;8.854;2023-11-18T10:10:24;6.60;99.90
18225;DHT22;9237;48.590;8.854;2023-11-18T10:12:56;6.70;99.90
18225;DHT22;9237;48.590;8.854;2023-11-18T10:15:25;6.70;99.90
18225;DHT22;9237;48.590;8.854;2023-11-18T10:17:53;6.70;99.90
18225;DHT22;9237;48.590;8.854;2023-11-18T10:20:43;6.80;99.90
18225;DHT22;9237;48.590;8.854;2023-11-18T10:23:11;6.90;99.90
18225;DHT22;9237;48.590;8.854;2023-11-18T10:25:45;7.00;99.90
18225;DHT22;9237;48.590;8.854;2023-11-18T10:28:24;7.10;99.90
18225;DHT22;9237;48.590;8.854;2023-11-18T10:30:53;7.20;99.90
18225;DHT22;9237;48.590;8.854;2023-11-18T10:33:21;7.30;99.90
18225;DHT22;9237;48.590;8.854;2023-11-18T10:35:50;7.40;99.90
18225;DHT22;9237;48.590;8.854;2023-11-18T10:38:17;7.50;99.90
18225;DHT22;9237;48.590;8.854;2023-11-18T10:40:44;7.50;99.90
18225;DHT22;9237;48.590;8.854;2023-11-18T10:43:11;7.60;99.90
18225;DHT22;9237;48.590;8.854;2023-11-18T10:45:41;7.70;99.90
18225;DHT22;9237;48.590;8.854;2023-11-18T10:48:08;7.70;99.90
18225;DHT22;9237;48.590;8.854;2023-11-18T10:50:35;7.70;99.90
18225;DHT22;9237;48.590;8.854;2023-11-18T10:53:03;7.80;99.90
18225;DHT22;9237;48.590;8.854;2023-11-18T10:55:37;7.80;99.90
18225;DHT22;9237;48.590;8.854;2023-11-18T10:58:06;7.70;99.90
18225;DHT22;9237;48.590;8.854;2023-11-18T11:00:46;7.70;99.90
18225;DHT22;9237;48.590;8.854;2023-11-18T11:03:14;7.70;99.90
18225;DHT22;9237;48.590;8.854;2023-11-18T11:05:41;7.70;99.90
18225;DHT22;9237;48.590;8.854;2023-11-18T11:08:13;7.80;99.90
18225;DHT22;9237;48.590;8.854;2023-11-18T11:10:41;7.80;99.90
18225;DHT22;9237;48.590;8.854;2023-11-18T11:13:09;7.70;99.90
18225;DHT22;9237;48.590;8.854;2023-11-18T11:15:40;7.70;99.90
18225;DHT22;9237;48.590;8.854;2023-11-18T11:18:11;7.80;99.90
18225;DHT22;9237;48.590;8.854;2023-11-18T11:20:46;7.80;99.90
18225;DHT22;9237;48.590;8.854;2023-11-18T11:23:21;7.90;99.90
18225;DHT22;9237;48.590;8.854;2023-11-18T11:25:59;7.90;99.90
18225;DHT22;9237;48.590;8.854;2023-11-18T11:28:33;8.00;99.90
18225;DHT22;9237;48.590;8.854;2023-11-18T11:31:12;8.00;99.90
18225;DHT22;9237;48.590;8.854;2023-11-18T11:33:46;8.10;99.90
18225;DHT22;9237;48.590;8.854;2023-11-18T11:36:21;8.10;99.90
18225;DHT22;9237;48.590;8.854;2023-11-18T11:38:52;7.90;99.90
18225;DHT22;9237;48.590;8.854;2023-11-18T11:41:21;7.90;99.90
18225;DHT22;9237;48.590;8.854;2023-11-18T11:43:52;7.80;99.90
18225;DHT22;9237;48.590;8.854;2023-11-18T11:46:21;7.80;99.90
18225;DHT22;9237;48.590;8.854;2023-11-18T11:48:49;7.70;99.90
18225;DHT22;9237;48.590;8.854;2023-11-18T11:51:24;7.70;99.90
18225;DHT22;9237;48.590;8.854;2023-11-18T11:53:58;7.70;99.90
18225;DHT22;9237;48.590;8.854;2023-11-18T11:56:38;7.70;99.90
18225;DHT22;9237;48.590;8.854;2023-11-18T11:59:05;7.70;99.90
18225;DHT22;9237;48.590;8.854;2023-11-18T12:01:37;7.70;99.90
18225;DHT22;9237;48.590;8.854;2023-11-18T12:04:04;7.60;99.90
18225;DHT22;9237;48.590;8.854;2023-11-18T12:06:41;7.60;99.90
18225;DHT22;9237;48.590;8.854;2023-11-18T12:09:11;7.50;99.90
18225;DHT22;9237;48.590;8.854;2023-11-18T12:11:45;7.50;99.90
18225;DHT22;9237;48.590;8.854;2023-11-18T12:14:14;7.50;99.90
18225;DHT22;9237;48.590;8.854;2023-11-18T12:17:02;7.40;99.90
18225;DHT22;9237;48.590;8.854;2023-11-18T12:19:34;7.30;99.90
18225;DHT22;9237;48.590;8.854;2023-11-18T12:22:10;7.20;99.90
18225;DHT22;9237;48.590;8.854;2023-11-18T12:24:45;7.20;99.90
18225;DHT22;9237;48.590;8.854;2023-11-18T12:27:12;7.20;99.90
18225;DHT22;9237;48.590;8.854;2023-11-18T12:29:41;7.20;99.90
18225;DHT22;9237;48.590;8.854;2023-11-18T12:32:09;7.10;99.90
18225;DHT22;9237;48.590;8.854;2023-11-18T12:34:51;7.10;99.90
18225;DHT22;9237;48.590;8.854;2023-11-18T12:37:59;7.10;99.90
18225;DHT22;9237;48.590;8.854;2023-11-18T12:40:57;7.10;99.90
18225;DHT22;9237;48.590;8.854;2023-11-18T12:43:42;7.10;99.90
18225;DHT22;9237;48.590;8.854;2023-11-18T12:46:41;7.10;99.90
18225;DHT22;9237;48.590;8.854;2023-11-18T12:49:15;7.10;99.90
18225;DHT22;9237;48.590;8.854;2023-11-18T12:51:42;7.10;99.90
18225;DHT22;9237;48.590;8.854;2023-11-18T12:54:11;7.10;99.90
18225;DHT22;9237;48.590;8.854;2023-11-18T12:56:40;7.10;99.90
18225;DHT22;9237;48.590;8.854;2023-11-18T12:59:09;7.00;99.90
18225;DHT22;9237;48.590;8.854;2023-11-18T13:01:38;7.00;99.90
18225;DHT22;9237;48.590;8.854;2023-11-18T13:04:07;7.00;99.90
18225;DHT22;9237;48.590;8.854;2023-11-18T13:06:35;7.00;99.90
18225;DHT22;9237;48.590;8.854;2023-11-18T13:09:01;7.00;99.90
18225;DHT22;9237;48.590;8.854;2023-11-18T13:11:31;7.00;99.90
18225;DHT22;9237;48.590;8.854;2023-11-18T13:14:00;6.90;99.90
18225;DHT22;9237;48.590;8.854;2023-11-18T13:16:29;7.00;99.90
18225;DHT22;9237;48.590;8.854;2023-11-18T13:18:55;6.90;99.90
18225;DHT22;9237;48.590;8.854;2023-11-18T13:21:22;6.90;99.90
18225;DHT22;9237;48.590;8.854;2023-11-18T13:23:52;6.90;99.90
18225;DHT22;9237;48.590;8.854;2023-11-18T13:26:20;6.90;99.90
18225;DHT22;9237;48.590;8.854;2023-11-18T13:28:47;7.00;99.90
18225;DHT22;9237;48.590;8.854;2023-11-18T13:31:16;6.90;99.90
18225;DHT22;9237;48.590;8.854;2023-11-18T13:33:44;6.90;99.90
18225;DHT22;9237;48.590;8.854;2023-11-18T13:36:13;6.90;99.90
18225;DHT22;9237;48.590;8.854;2023-11-18T13:38:41;6.90;99.90
18225;DHT22;9237;48.590;8.854;2023-11-18T13:41:09;6.80;99.90
18225;DHT22;9237;48.590;8.854;2023-11-18T13:43:42;6.80;99.90
18225;DHT22;9237;48.590;8.854;2023-11-18T13:46:12;6.90;99.90
18225;DHT22;9237;48.590;8.854;2023-11-18T13:48:40;6.80;99.90
18225;DHT22;9237;48.590;8.854;2023-11-18T13:51:10;6.80;99.90
18225;DHT22;9237;48.590;8.854;2023-11-18T13:53:39;6.80;99.90
18225;DHT22;9237;48.590;8.854;2023-11-18T13:56:09;6.80;99.90
18225;DHT22;9237;48.590;8.854;2023-11-18T13:58:36;6.80;99.90
18225;DHT22;9237;48.590;8.854;2023-11-18T14:01:05;6.90;99.90
18225;DHT22;9237;48.590;8.854;2023-11-18T14:03:33;6.90;99.90
18225;DHT22;9237;48.590;8.854;2023-11-18T14:06:06;6.90;99.90
18225;DHT22;9237;48.590;8.854;2023-11-18T14:08:33;7.00;99.90
18225;DHT22;9237;48.590;8.854;2023-11-18T14:11:00;7.00;99.90
18225;DHT22;9237;48.590;8.854;2023-11-18T14:13:27;7.00;99.90
18225;DHT22;9237;48.590;8.854;2023-11-18T14:15:56;7.10;99.90
18225;DHT22;9237;48.590;8.854;2023-11-18T14:18:23;7.00;99.90
18225;DHT22;9237;48.590;8.854;2023-11-18T14:20:50;7.00;99.90
18225;DHT22;9237;48.590;8.854;2023-11-18T14:23:18;7.00;99.90
18225;DHT22;9237;48.590;8.854;2023-11-18T14:25:45;7.00;99.90
18225;DHT22;9237;48.590;8.854;2023-11-18T14:28:11;7.00;99.90
18225;DHT22;9237;48.590;8.854;2023-11-18T14:30:38;6.90;99.90
18225;DHT22;9237;48.590;8.854;2023-11-18T14:33:05;6.90;99.90
18225;DHT22;9237;48.590;8.854;2023-11-18T14:35:32;6.90;99.90
18225;DHT22;9237;48.590;8.854;2023-11-18T14:37:59;6.90;99.90
18225;DHT22;9237;48.590;8.854;2023-11-18T14:40:27;6.90;99.90
18225;DHT22;9237;48.590;8.854;2023-11-18T14:42:55;6.90;99.90
18225;DHT22;9237;48.590;8.854;2023-11-18T14:45:22;6.90;99.90
18225;DHT22;9237;48.590;8.854;2023-11-18T14:47:48;6.90;99.90
18225;DHT22;9237;48.590;8.854;2023-11-18T14:50:19;6.90;99.90
18225;DHT22;9237;48.590;8.854;2023-11-18T14:52:46;6.90;99.90
18225;DHT22;9237;48.590;8.854;2023-11-18T14:55:14;6.90;99.90
18225;DHT22;9237;48.590;8.854;2023-11-18T14:57:44;6.80;99.90
18225;DHT22;9237;48.590;8.854;2023-11-18T15:00:13;6.80;99.90
18225;DHT22;9237;48.590;8.854;2023-11-18T15:02:45;6.80;99.90
18225;DHT22;9237;48.590;8.854;2023-11-18T15:05:13;6.80;99.90
18225;DHT22;9237;48.590;8.854;2023-11-18T15:07:44;6.80;99.90
18225;DHT22;9237;48.590;8.854;2023-11-18T15:10:11;6.80;99.90
18225;DHT22;9237;48.590;8.854;2023-11-18T15:12:39;6.80;99.90
18225;DHT22;9237;48.590;8.854;2023-11-18T15:15:08;6.80;99.90
18225;DHT22;9237;48.590;8.854;2023-11-18T15:17:43;6.80;99.90
18225;DHT22;9237;48.590;8.854;2023-11-18T15:20:11;6.80;99.90
18225;DHT22;9237;48.590;8.854;2023-11-18T15:22:40;6.80;99.90
18225;DHT22;9237;48.590;8.854;2023-11-18T15:25:10;6.70;99.90
18225;DHT22;9237;48.590;8.854;2023-11-18T15:27:39;6.80;99.90
18225;DHT22;9237;48.590;8.854;2023-11-18T15:30:08;6.80;99.90
18225;DHT22;9237;48.590;8.854;2023-11-18T15:32:37;6.70;99.90
18225;DHT22;9237;48.590;8.854;2023-11-18T15:35:05;6.70;99.90
18225;DHT22;9237;48.590;8.854;2023-11-18T15:37:34;6.70;99.90
18225;DHT22;9237;48.590;8.854;2023-11-18T15:40:02;6.60;99.90
18225;DHT22;9237;48.590;8.854;2023-11-18T15:42:35;6.60;99.90
18225;DHT22;9237;48.590;8.854;2023-11-18T15:45:03;6.60;99.90
18225;DHT22;9237;48.590;8.854;2023-11-18T15:47:35;6.60;99.90
18225;DHT22;9237;48.590;8.854;2023-11-18T15:50:04;6.60;99.90
18225;DHT22;9237;48.590;8.854;2023-11-18T15:52:31;6.60;99.90
18225;DHT22;9237;48.590;8.854;2023-11-18T15:55:00;6.60;99.90
18225;DHT22;9237;48.590;8.854;2023-11-18T15:57:27;6.50;99.90
18225;DHT22;9237;48.590;8.854;2023-11-18T15:59:54;6.50;99.90
18225;DHT22;9237;48.590;8.854;2023-11-18T16:02:21;6.50;99.90
18225;DHT22;9237;48.590;8.854;2023-11-18T16:04:49;6.50;99.90
18225;DHT22;9237;48.590;8.854;2023-11-18T16:07:16;6.50;99.90
18225;DHT22;9237;48.590;8.854;2023-11-18T16:09:43;6.50;99.90
18225;DHT22;9237;48.590;8.854;2023-11-18T16:12:10;6.50;99.90
18225;DHT22;9237;48.590;8.854;2023-11-18T16:14:37;6.50;99.90